Skip Navigation Links
NOAA logo - Click to go to the NOAA homepage
NOAA's National Weather Service
Alaska Aviation Weather Unit
  NWS logo - Click to go to the NWS homepage
Left Navbar Graphic     09 AKDT = 17 GMT

   
NOAA is celebrating 200 years of science, service, and stewardship. Visit the NOAA 200th celebration Web site to learn more.
USA.gov is the U.S. Government's official Web portal to all Federal, state and local government Web resources and services.
Facebook
NWS on Facebook

Important Change Regarding the AAWU Web Presence

 

Over the last several months, the AAWU has been working to navigate its webpages to a nationally supported server. Security, as well as other needs, have necessitated the change.  In the process, we have made an effort to enhance the functionality of our website, as well as some of our products. As of June 20, 2017, aawu.arh.noaa.gov will be discontinued. The new AAWU web address is weather.gov/aawu. It is now live and will run in-parallel with the old site until it is discontinued. Please send any feedback or questions regarding the new webpages to nws.ar.aawu.webauthors@noaa.gov.  Thank you for your patience during this time of transition.
AAWU Home :: Display TAF Add Bookmark
SPECI PAHP 271109Z AUTO 23005KT 10SM OVC015 03/00 A2983 RMK AO2=

METAR PAHP 271156Z AUTO 24009KT 10SM BKN019 OVC024 03/M01 A2983 RMK AO2
     SLP140 70001 T00281006 10033 20022 52004=

METAR PAHP 271256Z AUTO 30005KT 10SM OVC018 03/M01 A2984 RMK AO2 SLP143
     T00281006=

METAR PAHP 271356Z AUTO 27004KT 7SM UP OVC018 03/01 A2985 RMK AO2 UPB53
     SLP145 P0000 T00280006=

SPECI PAHP 271424Z AUTO 35005KT 9SM -RA BKN010 OVC016 02/01 A2985 RMK
     AO2 UPE00RAB00 P0001 FZRANO=

SPECI PAHP 271432Z AUTO 03004KT 10SM -RA BKN008 OVC016 02/01 A2985 RMK
     AO2 UPE00RAB00 P0001 FZRANO=

METAR PAHP 271556Z AUTO 31012KT 10SM OVC012 03/00 A2986 RMK AO2
     UPB00E10RAB14E31 SLP148 P0000 T00280000=

SPECI PAHP 271625Z AUTO 30011KT 10SM OVC016 03/00 A2986 RMK AO2=


NOAA's National Weather Service
Alaska Aviation Weather Unit
6930 Sand Lake Road
Anchorage, AK 99502-1845
Disclaimer
Credits
Glossary
Privacy Policy
About Us
Career Opportunities
Contact AAWU Internet Services Site last modified: April, 17th 2012